Strona główna
METAR-TAF:

METAR-TAF

Lotnisko :

Port lotniczy Londyn-Stansted

Londyn-Stansted, Anglia

Szerokość geograficzna: 51-53N, Długość geograficzna: 000-14E, wysokość: 106 m

Aktualna obserwacja pogody

Raport powstał 34 minut temu, godzina 08:20 UTC
Wiatr 11 kt od wschodnio-południowy wschód
Temperatura 15°C
Wilgotność 63%
Ciśnienie 1036 hPa
Widzialność 10 km lub więcej

METAR: EGSS 280820Z AUTO 12011KT 9999 NCD 15/08 Q1036

czas: 09:54 (08:54 UTC)

Prognoza

Raport powstał 3 godziny i 58 minut temu, godzina 04:56 UTC
Prognoza ważna od 28 godzina 06 UTC do 29 godzina 12 UTC
Wiatr 8 kt od wschodnio-południowy wschód
Widzialność 10 km lub więcej
Mało chmury na wysokości 4500 ft

TAF: EGSS 280456Z 2806/2912 11008KT 9999 FEW045

Obserwacja i prognoza pogody dla ponad 4000 lotnisk (raport METAR i TAF).

Dostępne stacje oznaczono żółtymi i czerwonymi punktami na mapie.

Najedź kursorem aby zobaczyć nazwę stacji.

Kliknij aby zobaczyć obserwacje i prognozy pogody.

Aby zmienić mapę: kliknij na zielony przycisk z czarnym krzyżykiem, aby powiększyć; na zielony przycisk z myślnikiem, aby pomniejszyć; na zielone strzałki, aby przejść do map sąsiednich.


METAR-TAF: